sensor_id;sensor_type;location;lat;lon;timestamp;P1;durP1;ratioP1;P2;durP2;ratioP2
68310;SDS011;55157;51.036;17.058;2023-12-20T00:02:16;12.48;;;7.88;;
68310;SDS011;55157;51.036;17.058;2023-12-20T00:04:41;12.45;;;7.75;;
68310;SDS011;55157;51.036;17.058;2023-12-20T00:07:07;12.20;;;7.60;;
68310;SDS011;55157;51.036;17.058;2023-12-20T00:09:33;12.63;;;7.95;;
68310;SDS011;55157;51.036;17.058;2023-12-20T00:11:59;10.60;;;7.13;;
68310;SDS011;55157;51.036;17.058;2023-12-20T00:14:24;15.95;;;7.55;;
68310;SDS011;55157;51.036;17.058;2023-12-20T00:16:49;14.27;;;7.63;;
68310;SDS011;55157;51.036;17.058;2023-12-20T00:19:14;16.13;;;7.97;;
68310;SDS011;55157;51.036;17.058;2023-12-20T00:21:39;13.88;;;7.97;;
68310;SDS011;55157;51.036;17.058;2023-12-20T00:24:05;11.25;;;7.65;;
68310;SDS011;55157;51.036;17.058;2023-12-20T00:26:31;14.77;;;8.32;;
68310;SDS011;55157;51.036;17.058;2023-12-20T00:28:57;11.55;;;8.45;;
68310;SDS011;55157;51.036;17.058;2023-12-20T00:31:22;11.88;;;6.80;;
68310;SDS011;55157;51.036;17.058;2023-12-20T00:33:47;12.93;;;8.30;;
68310;SDS011;55157;51.036;17.058;2023-12-20T00:36:12;10.05;;;7.00;;
68310;SDS011;55157;51.036;17.058;2023-12-20T00:38:38;11.25;;;7.22;;
68310;SDS011;55157;51.036;17.058;2023-12-20T00:41:03;12.48;;;7.72;;
68310;SDS011;55157;51.036;17.058;2023-12-20T00:43:30;10.38;;;6.82;;
68310;SDS011;55157;51.036;17.058;2023-12-20T00:45:55;12.27;;;8.52;;
68310;SDS011;55157;51.036;17.058;2023-12-20T00:48:21;12.07;;;8.50;;
68310;SDS011;55157;51.036;17.058;2023-12-20T00:50:46;10.15;;;7.95;;
68310;SDS011;55157;51.036;17.058;2023-12-20T00:53:11;11.48;;;7.50;;
68310;SDS011;55157;51.036;17.058;2023-12-20T00:55:36;11.38;;;7.90;;
68310;SDS011;55157;51.036;17.058;2023-12-20T00:58:02;12.23;;;9.02;;
68310;SDS011;55157;51.036;17.058;2023-12-20T01:00:28;14.30;;;8.80;;
68310;SDS011;55157;51.036;17.058;2023-12-20T01:02:53;12.18;;;8.52;;
68310;SDS011;55157;51.036;17.058;2023-12-20T01:05:19;13.38;;;9.30;;
68310;SDS011;55157;51.036;17.058;2023-12-20T01:07:44;14.63;;;9.27;;
68310;SDS011;55157;51.036;17.058;2023-12-20T01:10:09;14.32;;;9.45;;
68310;SDS011;55157;51.036;17.058;2023-12-20T01:12:35;13.50;;;8.82;;
68310;SDS011;55157;51.036;17.058;2023-12-20T01:15:01;15.55;;;9.80;;
68310;SDS011;55157;51.036;17.058;2023-12-20T01:17:27;13.02;;;9.77;;
68310;SDS011;55157;51.036;17.058;2023-12-20T01:19:53;12.88;;;9.75;;
68310;SDS011;55157;51.036;17.058;2023-12-20T01:22:18;15.82;;;10.75;;
68310;SDS011;55157;51.036;17.058;2023-12-20T01:24:43;14.57;;;10.98;;
68310;SDS011;55157;51.036;17.058;2023-12-20T01:27:08;13.27;;;10.10;;
68310;SDS011;55157;51.036;17.058;2023-12-20T01:29:33;12.52;;;10.02;;
68310;SDS011;55157;51.036;17.058;2023-12-20T01:31:59;13.10;;;10.00;;
68310;SDS011;55157;51.036;17.058;2023-12-20T01:34:25;15.43;;;11.45;;
68310;SDS011;55157;51.036;17.058;2023-12-20T01:36:51;14.48;;;11.07;;
68310;SDS011;55157;51.036;17.058;2023-12-20T01:39:16;16.02;;;12.13;;
68310;SDS011;55157;51.036;17.058;2023-12-20T01:41:41;16.42;;;11.35;;
68310;SDS011;55157;51.036;17.058;2023-12-20T01:44:07;17.25;;;10.32;;
68310;SDS011;55157;51.036;17.058;2023-12-20T01:46:32;12.52;;;10.50;;
68310;SDS011;55157;51.036;17.058;2023-12-20T01:48:57;13.65;;;10.55;;
68310;SDS011;55157;51.036;17.058;2023-12-20T01:51:24;13.63;;;11.63;;
68310;SDS011;55157;51.036;17.058;2023-12-20T01:53:50;13.35;;;10.43;;
68310;SDS011;55157;51.036;17.058;2023-12-20T01:56:15;14.35;;;10.27;;
68310;SDS011;55157;51.036;17.058;2023-12-20T01:58:43;14.48;;;10.50;;
68310;SDS011;55157;51.036;17.058;2023-12-20T02:01:08;16.17;;;10.82;;
68310;SDS011;55157;51.036;17.058;2023-12-20T02:03:33;16.48;;;9.90;;
68310;SDS011;55157;51.036;17.058;2023-12-20T02:05:59;13.82;;;10.50;;
68310;SDS011;55157;51.036;17.058;2023-12-20T02:08:26;13.02;;;10.25;;
68310;SDS011;55157;51.036;17.058;2023-12-20T02:10:51;14.77;;;9.93;;
68310;SDS011;55157;51.036;17.058;2023-12-20T02:13:16;11.55;;;9.55;;
68310;SDS011;55157;51.036;17.058;2023-12-20T02:15:41;12.25;;;9.90;;
68310;SDS011;55157;51.036;17.058;2023-12-20T02:18:07;13.77;;;10.68;;
68310;SDS011;55157;51.036;17.058;2023-12-20T02:20:32;12.43;;;9.77;;
68310;SDS011;55157;51.036;17.058;2023-12-20T02:22:59;12.95;;;8.35;;
68310;SDS011;55157;51.036;17.058;2023-12-20T02:25:24;11.50;;;8.90;;
68310;SDS011;55157;51.036;17.058;2023-12-20T02:27:49;12.23;;;8.95;;
68310;SDS011;55157;51.036;17.058;2023-12-20T02:30:14;9.13;;;7.82;;
68310;SDS011;55157;51.036;17.058;2023-12-20T02:32:40;9.13;;;7.47;;
68310;SDS011;55157;51.036;17.058;2023-12-20T02:35:05;11.15;;;6.90;;
68310;SDS011;55157;51.036;17.058;2023-12-20T02:37:30;9.45;;;7.10;;
68310;SDS011;55157;51.036;17.058;2023-12-20T02:39:57;9.57;;;7.60;;
68310;SDS011;55157;51.036;17.058;2023-12-20T02:42:22;9.43;;;6.53;;
68310;SDS011;55157;51.036;17.058;2023-12-20T02:44:48;9.10;;;6.85;;
68310;SDS011;55157;51.036;17.058;2023-12-20T02:47:13;10.25;;;7.13;;
68310;SDS011;55157;51.036;17.058;2023-12-20T02:49:38;9.50;;;6.95;;
68310;SDS011;55157;51.036;17.058;2023-12-20T02:52:04;8.77;;;6.63;;
68310;SDS011;55157;51.036;17.058;2023-12-20T02:54:29;9.00;;;7.13;;
68310;SDS011;55157;51.036;17.058;2023-12-20T02:56:56;9.05;;;6.78;;
68310;SDS011;55157;51.036;17.058;2023-12-20T02:59:21;11.60;;;7.75;;
68310;SDS011;55157;51.036;17.058;2023-12-20T03:01:46;9.95;;;6.47;;
68310;SDS011;55157;51.036;17.058;2023-12-20T03:04:11;8.48;;;6.40;;
68310;SDS011;55157;51.036;17.058;2023-12-20T03:06:37;7.53;;;5.80;;
68310;SDS011;55157;51.036;17.058;2023-12-20T03:09:02;7.72;;;5.78;;
68310;SDS011;55157;51.036;17.058;2023-12-20T03:11:27;8.07;;;5.55;;
68310;SDS011;55157;51.036;17.058;2023-12-20T03:13:54;9.57;;;5.13;;
68310;SDS011;55157;51.036;17.058;2023-12-20T03:16:19;7.13;;;5.00;;
68310;SDS011;55157;51.036;17.058;2023-12-20T03:18:44;6.28;;;5.22;;
68310;SDS011;55157;51.036;17.058;2023-12-20T03:21:10;7.88;;;4.90;;
68310;SDS011;55157;51.036;17.058;2023-12-20T03:23:35;6.60;;;4.50;;
68310;SDS011;55157;51.036;17.058;2023-12-20T03:26:00;5.90;;;4.90;;
68310;SDS011;55157;51.036;17.058;2023-12-20T03:28:26;5.70;;;4.65;;
68310;SDS011;55157;51.036;17.058;2023-12-20T03:30:53;5.63;;;4.25;;
68310;SDS011;55157;51.036;17.058;2023-12-20T03:33:18;6.07;;;4.45;;
68310;SDS011;55157;51.036;17.058;2023-12-20T03:35:43;4.88;;;3.90;;
68310;SDS011;55157;51.036;17.058;2023-12-20T03:38:08;6.75;;;4.07;;
68310;SDS011;55157;51.036;17.058;2023-12-20T03:40:34;6.97;;;4.60;;
68310;SDS011;55157;51.036;17.058;2023-12-20T03:42:59;5.72;;;4.55;;
68310;SDS011;55157;51.036;17.058;2023-12-20T03:45:24;5.57;;;4.72;;
68310;SDS011;55157;51.036;17.058;2023-12-20T03:47:51;5.90;;;4.50;;
68310;SDS011;55157;51.036;17.058;2023-12-20T03:50:16;5.30;;;3.90;;
68310;SDS011;55157;51.036;17.058;2023-12-20T03:52:42;7.05;;;4.88;;
68310;SDS011;55157;51.036;17.058;2023-12-20T03:55:07;8.07;;;4.43;;
68310;SDS011;55157;51.036;17.058;2023-12-20T03:57:32;5.57;;;4.43;;
68310;SDS011;55157;51.036;17.058;2023-12-20T03:59:57;6.05;;;4.18;;
68310;SDS011;55157;51.036;17.058;2023-12-20T04:02:23;4.78;;;4.00;;
68310;SDS011;55157;51.036;17.058;2023-12-20T04:04:49;8.52;;;4.60;;
68310;SDS011;55157;51.036;17.058;2023-12-20T04:07:15;5.30;;;4.43;;
68310;SDS011;55157;51.036;17.058;2023-12-20T04:09:40;5.07;;;3.97;;
68310;SDS011;55157;51.036;17.058;2023-12-20T04:12:05;7.53;;;3.58;;
68310;SDS011;55157;51.036;17.058;2023-12-20T04:14:31;3.72;;;3.10;;
68310;SDS011;55157;51.036;17.058;2023-12-20T04:16:56;3.55;;;3.17;;
68310;SDS011;55157;51.036;17.058;2023-12-20T04:19:21;3.58;;;2.55;;
68310;SDS011;55157;51.036;17.058;2023-12-20T04:21:48;4.15;;;2.60;;
68310;SDS011;55157;51.036;17.058;2023-12-20T04:24:13;2.83;;;2.47;;
68310;SDS011;55157;51.036;17.058;2023-12-20T04:26:38;3.13;;;2.60;;
68310;SDS011;55157;51.036;17.058;2023-12-20T04:29:04;3.15;;;2.75;;
68310;SDS011;55157;51.036;17.058;2023-12-20T04:31:29;2.65;;;2.45;;
68310;SDS011;55157;51.036;17.058;2023-12-20T04:33:54;4.22;;;2.50;;
68310;SDS011;55157;51.036;17.058;2023-12-20T04:36:20;2.63;;;2.00;;
68310;SDS011;55157;51.036;17.058;2023-12-20T04:38:46;2.15;;;1.70;;
68310;SDS011;55157;51.036;17.058;2023-12-20T04:41:12;2.42;;;2.03;;
68310;SDS011;55157;51.036;17.058;2023-12-20T04:43:37;2.05;;;1.60;;
68310;SDS011;55157;51.036;17.058;2023-12-20T04:46:02;3.20;;;1.75;;
68310;SDS011;55157;51.036;17.058;2023-12-20T04:48:28;1.95;;;1.60;;
68310;SDS011;55157;51.036;17.058;2023-12-20T04:50:53;6.97;;;1.73;;
68310;SDS011;55157;51.036;17.058;2023-12-20T04:53:18;2.08;;;1.27;;
68310;SDS011;55157;51.036;17.058;2023-12-20T04:55:45;1.10;;;0.95;;
68310;SDS011;55157;51.036;17.058;2023-12-20T04:58:10;2.00;;;1.00;;
68310;SDS011;55157;51.036;17.058;2023-12-20T05:00:35;1.00;;;0.90;;
68310;SDS011;55157;51.036;17.058;2023-12-20T05:03:00;1.30;;;1.00;;
68310;SDS011;55157;51.036;17.058;2023-12-20T05:05:26;0.70;;;0.70;;
68310;SDS011;55157;51.036;17.058;2023-12-20T05:07:51;1.00;;;0.80;;
68310;SDS011;55157;51.036;17.058;2023-12-20T05:10:16;2.25;;;1.00;;
68310;SDS011;55157;51.036;17.058;2023-12-20T05:12:43;0.70;;;0.70;;
68310;SDS011;55157;51.036;17.058;2023-12-20T05:15:08;1.58;;;0.80;;
68310;SDS011;55157;51.036;17.058;2023-12-20T05:17:33;1.42;;;0.98;;
68310;SDS011;55157;51.036;17.058;2023-12-20T05:19:59;1.30;;;0.90;;
68310;SDS011;55157;51.036;17.058;2023-12-20T05:22:24;1.85;;;1.20;;
68310;SDS011;55157;51.036;17.058;2023-12-20T05:24:49;1.70;;;1.25;;
68310;SDS011;55157;51.036;17.058;2023-12-20T05:27:14;1.13;;;1.02;;
68310;SDS011;55157;51.036;17.058;2023-12-20T05:29:41;1.30;;;1.20;;
68310;SDS011;55157;51.036;17.058;2023-12-20T05:32:06;1.92;;;1.17;;
68310;SDS011;55157;51.036;17.058;2023-12-20T05:34:31;1.60;;;1.15;;
68310;SDS011;55157;51.036;17.058;2023-12-20T05:36:57;5.95;;;1.30;;
68310;SDS011;55157;51.036;17.058;2023-12-20T05:39:22;1.73;;;1.27;;
68310;SDS011;55157;51.036;17.058;2023-12-20T05:41:47;5.95;;;1.92;;
68310;SDS011;55157;51.036;17.058;2023-12-20T05:44:13;3.40;;;1.80;;
68310;SDS011;55157;51.036;17.058;2023-12-20T05:46:39;2.15;;;1.90;;
68310;SDS011;55157;51.036;17.058;2023-12-20T05:49:05;2.30;;;1.50;;
68310;SDS011;55157;51.036;17.058;2023-12-20T05:51:30;3.00;;;1.60;;
68310;SDS011;55157;51.036;17.058;2023-12-20T05:53:55;4.28;;;2.17;;
68310;SDS011;55157;51.036;17.058;2023-12-20T05:56:20;6.93;;;1.98;;
68310;SDS011;55157;51.036;17.058;2023-12-20T05:58:46;2.63;;;1.70;;
68310;SDS011;55157;51.036;17.058;2023-12-20T06:01:11;1.83;;;1.60;;
68310;SDS011;55157;51.036;17.058;2023-12-20T06:03:38;4.78;;;1.70;;
68310;SDS011;55157;51.036;17.058;2023-12-20T06:06:06;1.95;;;1.60;;
68310;SDS011;55157;51.036;17.058;2023-12-20T06:08:31;3.92;;;2.17;;
68310;SDS011;55157;51.036;17.058;2023-12-20T06:10:56;3.78;;;1.50;;
68310;SDS011;55157;51.036;17.058;2023-12-20T06:13:21;6.38;;;1.63;;
68310;SDS011;55157;51.036;17.058;2023-12-20T06:15:47;1.15;;;1.05;;
68310;SDS011;55157;51.036;17.058;2023-12-20T06:18:12;2.22;;;1.40;;
68310;SDS011;55157;51.036;17.058;2023-12-20T06:20:38;1.58;;;1.48;;
68310;SDS011;55157;51.036;17.058;2023-12-20T06:23:04;3.33;;;1.45;;
68310;SDS011;55157;51.036;17.058;2023-12-20T06:25:29;1.80;;;1.50;;
68310;SDS011;55157;51.036;17.058;2023-12-20T06:27:54;2.10;;;1.63;;
68310;SDS011;55157;51.036;17.058;2023-12-20T06:30:19;2.22;;;1.55;;
68310;SDS011;55157;51.036;17.058;2023-12-20T06:32:45;1.70;;;1.35;;
68310;SDS011;55157;51.036;17.058;2023-12-20T06:35:10;4.63;;;1.80;;
68310;SDS011;55157;51.036;17.058;2023-12-20T06:37:37;3.05;;;1.90;;
68310;SDS011;55157;51.036;17.058;2023-12-20T06:40:02;1.70;;;1.25;;
68310;SDS011;55157;51.036;17.058;2023-12-20T06:42:28;3.20;;;1.70;;
68310;SDS011;55157;51.036;17.058;2023-12-20T06:44:53;2.30;;;1.90;;
68310;SDS011;55157;51.036;17.058;2023-12-20T06:47:18;3.63;;;1.75;;
68310;SDS011;55157;51.036;17.058;2023-12-20T06:49:44;2.22;;;1.70;;
68310;SDS011;55157;51.036;17.058;2023-12-20T06:52:09;2.05;;;1.42;;
68310;SDS011;55157;51.036;17.058;2023-12-20T06:54:36;1.42;;;1.33;;
68310;SDS011;55157;51.036;17.058;2023-12-20T06:57:01;7.32;;;1.20;;
68310;SDS011;55157;51.036;17.058;2023-12-20T06:59:26;1.75;;;1.40;;
68310;SDS011;55157;51.036;17.058;2023-12-20T07:01:51;1.83;;;1.20;;
68310;SDS011;55157;51.036;17.058;2023-12-20T07:04:17;3.15;;;1.60;;
68310;SDS011;55157;51.036;17.058;2023-12-20T07:06:42;2.72;;;1.30;;
68310;SDS011;55157;51.036;17.058;2023-12-20T07:09:07;2.30;;;1.48;;
68310;SDS011;55157;51.036;17.058;2023-12-20T07:11:34;2.45;;;1.35;;
68310;SDS011;55157;51.036;17.058;2023-12-20T07:13:59;2.00;;;1.50;;
68310;SDS011;55157;51.036;17.058;2023-12-20T07:16:24;5.47;;;2.00;;
68310;SDS011;55157;51.036;17.058;2023-12-20T07:18:50;3.33;;;2.10;;
68310;SDS011;55157;51.036;17.058;2023-12-20T07:21:15;2.47;;;1.73;;
68310;SDS011;55157;51.036;17.058;2023-12-20T07:23:40;4.57;;;2.05;;
68310;SDS011;55157;51.036;17.058;2023-12-20T07:26:05;4.22;;;2.40;;
68310;SDS011;55157;51.036;17.058;2023-12-20T07:28:32;5.07;;;3.20;;
68310;SDS011;55157;51.036;17.058;2023-12-20T07:30:57;9.65;;;2.85;;
68310;SDS011;55157;51.036;17.058;2023-12-20T07:33:23;5.95;;;2.55;;
68310;SDS011;55157;51.036;17.058;2023-12-20T07:35:48;5.85;;;2.35;;
68310;SDS011;55157;51.036;17.058;2023-12-20T07:38:13;4.03;;;1.63;;
68310;SDS011;55157;51.036;17.058;2023-12-20T07:40:38;3.40;;;1.52;;
68310;SDS011;55157;51.036;17.058;2023-12-20T07:43:04;3.40;;;1.98;;
68310;SDS011;55157;51.036;17.058;2023-12-20T07:45:30;2.20;;;1.52;;
68310;SDS011;55157;51.036;17.058;2023-12-20T07:47:56;3.03;;;1.77;;
68310;SDS011;55157;51.036;17.058;2023-12-20T07:50:21;2.63;;;1.80;;
68310;SDS011;55157;51.036;17.058;2023-12-20T07:52:46;3.38;;;1.80;;
68310;SDS011;55157;51.036;17.058;2023-12-20T07:55:11;2.67;;;2.00;;
68310;SDS011;55157;51.036;17.058;2023-12-20T07:57:37;3.42;;;1.80;;
68310;SDS011;55157;51.036;17.058;2023-12-20T08:00:02;1.80;;;1.40;;
68310;SDS011;55157;51.036;17.058;2023-12-20T08:02:29;3.38;;;2.15;;
68310;SDS011;55157;51.036;17.058;2023-12-20T08:04:54;2.58;;;1.80;;
68310;SDS011;55157;51.036;17.058;2023-12-20T08:07:19;2.47;;;1.83;;
68310;SDS011;55157;51.036;17.058;2023-12-20T08:09:45;2.00;;;1.65;;
68310;SDS011;55157;51.036;17.058;2023-12-20T08:12:10;3.88;;;1.92;;
68310;SDS011;55157;51.036;17.058;2023-12-20T08:14:35;2.35;;;1.90;;
68310;SDS011;55157;51.036;17.058;2023-12-20T08:17:00;3.08;;;1.90;;
68310;SDS011;55157;51.036;17.058;2023-12-20T08:19:27;4.70;;;2.00;;
68310;SDS011;55157;51.036;17.058;2023-12-20T08:21:52;5.10;;;2.20;;
68310;SDS011;55157;51.036;17.058;2023-12-20T08:24:17;2.20;;;2.00;;
68310;SDS011;55157;51.036;17.058;2023-12-20T08:26:43;4.38;;;2.58;;
68310;SDS011;55157;51.036;17.058;2023-12-20T08:29:08;2.47;;;1.63;;
68310;SDS011;55157;51.036;17.058;2023-12-20T08:31:33;2.83;;;1.90;;
68310;SDS011;55157;51.036;17.058;2023-12-20T08:33:58;2.50;;;1.75;;
68310;SDS011;55157;51.036;17.058;2023-12-20T08:36:25;3.85;;;2.20;;
68310;SDS011;55157;51.036;17.058;2023-12-20T08:38:50;3.22;;;1.80;;
68310;SDS011;55157;51.036;17.058;2023-12-20T08:41:16;2.28;;;1.70;;
68310;SDS011;55157;51.036;17.058;2023-12-20T08:43:41;3.45;;;1.75;;
68310;SDS011;55157;51.036;17.058;2023-12-20T08:46:06;2.50;;;1.60;;
68310;SDS011;55157;51.036;17.058;2023-12-20T08:48:32;4.38;;;1.60;;
68310;SDS011;55157;51.036;17.058;2023-12-20T08:50:57;2.92;;;1.52;;
68310;SDS011;55157;51.036;17.058;2023-12-20T08:53:24;4.72;;;1.50;;
68310;SDS011;55157;51.036;17.058;2023-12-20T08:55:49;2.70;;;1.48;;
68310;SDS011;55157;51.036;17.058;2023-12-20T08:58:14;2.00;;;1.40;;
68310;SDS011;55157;51.036;17.058;2023-12-20T09:00:39;2.53;;;1.40;;
68310;SDS011;55157;51.036;17.058;2023-12-20T09:03:05;3.20;;;1.50;;
68310;SDS011;55157;51.036;17.058;2023-12-20T09:05:30;5.28;;;1.70;;
68310;SDS011;55157;51.036;17.058;2023-12-20T09:07:56;3.40;;;1.58;;
68310;SDS011;55157;51.036;17.058;2023-12-20T09:10:23;2.85;;;1.58;;
68310;SDS011;55157;51.036;17.058;2023-12-20T09:12:48;3.60;;;1.50;;
68310;SDS011;55157;51.036;17.058;2023-12-20T09:15:13;2.80;;;1.48;;
68310;SDS011;55157;51.036;17.058;2023-12-20T09:17:38;3.92;;;1.73;;
68310;SDS011;55157;51.036;17.058;2023-12-20T09:20:04;2.83;;;1.45;;
68310;SDS011;55157;51.036;17.058;2023-12-20T09:22:29;2.60;;;1.65;;
68310;SDS011;55157;51.036;17.058;2023-12-20T09:24:55;3.90;;;1.30;;
68310;SDS011;55157;51.036;17.058;2023-12-20T09:27:21;3.13;;;1.48;;
68310;SDS011;55157;51.036;17.058;2023-12-20T09:29:47;3.53;;;1.90;;
68310;SDS011;55157;51.036;17.058;2023-12-20T09:32:12;8.80;;;1.80;;
68310;SDS011;55157;51.036;17.058;2023-12-20T09:34:37;6.63;;;1.63;;
68310;SDS011;55157;51.036;17.058;2023-12-20T09:37:02;3.55;;;1.60;;
68310;SDS011;55157;51.036;17.058;2023-12-20T09:39:28;3.30;;;1.40;;
68310;SDS011;55157;51.036;17.058;2023-12-20T09:41:56;5.25;;;2.33;;
68310;SDS011;55157;51.036;17.058;2023-12-20T09:44:26;2.92;;;1.58;;
68310;SDS011;55157;51.036;17.058;2023-12-20T09:46:51;2.67;;;1.42;;
68310;SDS011;55157;51.036;17.058;2023-12-20T09:49:18;2.08;;;1.48;;
68310;SDS011;55157;51.036;17.058;2023-12-20T09:51:43;3.10;;;1.85;;
68310;SDS011;55157;51.036;17.058;2023-12-20T09:54:10;2.78;;;1.60;;
68310;SDS011;55157;51.036;17.058;2023-12-20T09:56:36;3.47;;;1.50;;
68310;SDS011;55157;51.036;17.058;2023-12-20T09:59:02;3.88;;;1.58;;
68310;SDS011;55157;51.036;17.058;2023-12-20T10:01:29;4.45;;;1.75;;
68310;SDS011;55157;51.036;17.058;2023-12-20T10:03:55;3.10;;;1.73;;
68310;SDS011;55157;51.036;17.058;2023-12-20T10:06:21;2.15;;;1.30;;
68310;SDS011;55157;51.036;17.058;2023-12-20T10:08:46;4.40;;;1.73;;
68310;SDS011;55157;51.036;17.058;2023-12-20T10:11:11;3.63;;;1.55;;
68310;SDS011;55157;51.036;17.058;2023-12-20T10:13:38;2.58;;;1.70;;
68310;SDS011;55157;51.036;17.058;2023-12-20T10:16:04;2.40;;;1.63;;
68310;SDS011;55157;51.036;17.058;2023-12-20T10:18:32;5.90;;;2.00;;
68310;SDS011;55157;51.036;17.058;2023-12-20T10:20:57;1.95;;;1.20;;
68310;SDS011;55157;51.036;17.058;2023-12-20T10:23:22;3.08;;;1.95;;
68310;SDS011;55157;51.036;17.058;2023-12-20T10:25:55;4.05;;;2.13;;
68310;SDS011;55157;51.036;17.058;2023-12-20T10:28:20;2.63;;;1.70;;
68310;SDS011;55157;51.036;17.058;2023-12-20T10:30:46;3.22;;;1.50;;
68310;SDS011;55157;51.036;17.058;2023-12-20T10:33:11;2.20;;;1.30;;
68310;SDS011;55157;51.036;17.058;2023-12-20T10:35:38;4.32;;;1.50;;
68310;SDS011;55157;51.036;17.058;2023-12-20T10:38:04;3.88;;;2.08;;
68310;SDS011;55157;51.036;17.058;2023-12-20T10:40:29;5.15;;;1.48;;
68310;SDS011;55157;51.036;17.058;2023-12-20T10:42:55;3.28;;;1.40;;
68310;SDS011;55157;51.036;17.058;2023-12-20T10:45:21;4.43;;;1.48;;
68310;SDS011;55157;51.036;17.058;2023-12-20T10:47:46;6.93;;;3.13;;
68310;SDS011;55157;51.036;17.058;2023-12-20T10:50:11;3.10;;;1.85;;
68310;SDS011;55157;51.036;17.058;2023-12-20T10:52:38;4.05;;;1.67;;
68310;SDS011;55157;51.036;17.058;2023-12-20T10:55:05;2.30;;;1.40;;
68310;SDS011;55157;51.036;17.058;2023-12-20T10:57:31;2.35;;;1.65;;
68310;SDS011;55157;51.036;17.058;2023-12-20T10:59:58;2.25;;;1.42;;
68310;SDS011;55157;51.036;17.058;2023-12-20T11:02:25;5.55;;;1.90;;
68310;SDS011;55157;51.036;17.058;2023-12-20T11:04:52;3.03;;;1.83;;
68310;SDS011;55157;51.036;17.058;2023-12-20T11:07:20;2.95;;;1.95;;
68310;SDS011;55157;51.036;17.058;2023-12-20T11:09:49;3.28;;;1.75;;
68310;SDS011;55157;51.036;17.058;2023-12-20T11:12:17;2.92;;;1.67;;
68310;SDS011;55157;51.036;17.058;2023-12-20T11:14:45;4.60;;;1.98;;
68310;SDS011;55157;51.036;17.058;2023-12-20T11:17:11;3.03;;;1.90;;
68310;SDS011;55157;51.036;17.058;2023-12-20T11:22:03;3.22;;;2.00;;
68310;SDS011;55157;51.036;17.058;2023-12-20T11:24:28;8.20;;;2.60;;
68310;SDS011;55157;51.036;17.058;2023-12-20T11:26:57;3.70;;;1.80;;
68310;SDS011;55157;51.036;17.058;2023-12-20T11:29:29;4.18;;;1.73;;
68310;SDS011;55157;51.036;17.058;2023-12-20T11:31:54;9.48;;;1.88;;
68310;SDS011;55157;51.036;17.058;2023-12-20T11:34:19;5.80;;;2.13;;
68310;SDS011;55157;51.036;17.058;2023-12-20T11:36:45;5.93;;;1.58;;
68310;SDS011;55157;51.036;17.058;2023-12-20T11:39:10;4.22;;;1.67;;
68310;SDS011;55157;51.036;17.058;2023-12-20T11:41:36;5.43;;;1.50;;
68310;SDS011;55157;51.036;17.058;2023-12-20T11:44:02;2.33;;;1.38;;
68310;SDS011;55157;51.036;17.058;2023-12-20T11:46:29;4.55;;;1.80;;
68310;SDS011;55157;51.036;17.058;2023-12-20T11:48:56;8.73;;;1.58;;
68310;SDS011;55157;51.036;17.058;2023-12-20T11:51:21;6.32;;;1.40;;
68310;SDS011;55157;51.036;17.058;2023-12-20T11:53:50;5.80;;;1.60;;
68310;SDS011;55157;51.036;17.058;2023-12-20T11:56:16;3.30;;;1.77;;
68310;SDS011;55157;51.036;17.058;2023-12-20T11:58:41;5.47;;;1.50;;
68310;SDS011;55157;51.036;17.058;2023-12-20T12:01:08;3.80;;;1.40;;
68310;SDS011;55157;51.036;17.058;2023-12-20T12:03:33;3.50;;;1.60;;
68310;SDS011;55157;51.036;17.058;2023-12-20T12:05:58;5.88;;;1.67;;
68310;SDS011;55157;51.036;17.058;2023-12-20T12:08:24;5.50;;;1.77;;
68310;SDS011;55157;51.036;17.058;2023-12-20T12:10:49;3.53;;;1.40;;
68310;SDS011;55157;51.036;17.058;2023-12-20T12:13:14;4.55;;;1.55;;
68310;SDS011;55157;51.036;17.058;2023-12-20T12:15:40;5.13;;;1.48;;
68310;SDS011;55157;51.036;17.058;2023-12-20T12:18:07;4.68;;;2.20;;
68310;SDS011;55157;51.036;17.058;2023-12-20T12:20:32;5.30;;;1.77;;
68310;SDS011;55157;51.036;17.058;2023-12-20T12:22:58;6.55;;;1.70;;
68310;SDS011;55157;51.036;17.058;2023-12-20T12:25:23;3.22;;;1.35;;
68310;SDS011;55157;51.036;17.058;2023-12-20T12:27:49;7.55;;;1.70;;
68310;SDS011;55157;51.036;17.058;2023-12-20T12:30:15;4.15;;;1.30;;
68310;SDS011;55157;51.036;17.058;2023-12-20T12:32:41;3.83;;;1.40;;
68310;SDS011;55157;51.036;17.058;2023-12-20T12:35:08;7.25;;;1.52;;
68310;SDS011;55157;51.036;17.058;2023-12-20T12:37:34;2.38;;;1.42;;
68310;SDS011;55157;51.036;17.058;2023-12-20T12:39:59;3.05;;;1.40;;
68310;SDS011;55157;51.036;17.058;2023-12-20T12:42:24;4.15;;;1.80;;
68310;SDS011;55157;51.036;17.058;2023-12-20T12:44:49;5.32;;;2.05;;
68310;SDS011;55157;51.036;17.058;2023-12-20T12:47:15;4.85;;;2.45;;
68310;SDS011;55157;51.036;17.058;2023-12-20T12:49:40;4.60;;;2.35;;
68310;SDS011;55157;51.036;17.058;2023-12-20T12:52:07;6.50;;;1.95;;
68310;SDS011;55157;51.036;17.058;2023-12-20T12:54:32;5.00;;;2.13;;
68310;SDS011;55157;51.036;17.058;2023-12-20T12:56:57;6.75;;;2.15;;
68310;SDS011;55157;51.036;17.058;2023-12-20T12:59:22;4.82;;;2.17;;
68310;SDS011;55157;51.036;17.058;2023-12-20T13:01:48;4.72;;;1.77;;
68310;SDS011;55157;51.036;17.058;2023-12-20T13:04:13;4.35;;;2.00;;
68310;SDS011;55157;51.036;17.058;2023-12-20T13:06:38;5.82;;;2.17;;
68310;SDS011;55157;51.036;17.058;2023-12-20T13:09:05;9.75;;;2.05;;
68310;SDS011;55157;51.036;17.058;2023-12-20T13:11:30;7.63;;;1.60;;
68310;SDS011;55157;51.036;17.058;2023-12-20T13:13:55;5.70;;;1.85;;
68310;SDS011;55157;51.036;17.058;2023-12-20T13:16:21;4.78;;;1.90;;
68310;SDS011;55157;51.036;17.058;2023-12-20T13:18:46;4.38;;;1.80;;
68310;SDS011;55157;51.036;17.058;2023-12-20T13:21:11;7.65;;;2.28;;
68310;SDS011;55157;51.036;17.058;2023-12-20T13:23:36;4.45;;;1.70;;
68310;SDS011;55157;51.036;17.058;2023-12-20T13:26:03;6.60;;;2.30;;
68310;SDS011;55157;51.036;17.058;2023-12-20T13:28:28;5.43;;;1.50;;
68310;SDS011;55157;51.036;17.058;2023-12-20T13:30:53;12.88;;;2.15;;
68310;SDS011;55157;51.036;17.058;2023-12-20T13:33:19;6.97;;;2.45;;
68310;SDS011;55157;51.036;17.058;2023-12-20T13:35:44;6.55;;;1.70;;
68310;SDS011;55157;51.036;17.058;2023-12-20T13:38:09;8.02;;;2.22;;
68310;SDS011;55157;51.036;17.058;2023-12-20T13:40:34;5.00;;;2.00;;
68310;SDS011;55157;51.036;17.058;2023-12-20T13:43:01;7.50;;;1.95;;
68310;SDS011;55157;51.036;17.058;2023-12-20T13:45:26;5.00;;;1.80;;
68310;SDS011;55157;51.036;17.058;2023-12-20T13:47:52;7.90;;;1.95;;
68310;SDS011;55157;51.036;17.058;2023-12-20T13:50:17;5.78;;;1.92;;
68310;SDS011;55157;51.036;17.058;2023-12-20T13:52:42;6.70;;;2.65;;
68310;SDS011;55157;51.036;17.058;2023-12-20T13:55:09;8.45;;;1.98;;
68310;SDS011;55157;51.036;17.058;2023-12-20T13:57:34;5.75;;;2.03;;
68310;SDS011;55157;51.036;17.058;2023-12-20T14:00:01;9.80;;;3.00;;
68310;SDS011;55157;51.036;17.058;2023-12-20T14:02:26;7.15;;;2.17;;
68310;SDS011;55157;51.036;17.058;2023-12-20T14:04:51;7.35;;;2.95;;
68310;SDS011;55157;51.036;17.058;2023-12-20T14:07:16;3.78;;;1.83;;
68310;SDS011;55157;51.036;17.058;2023-12-20T14:09:42;8.48;;;1.73;;
68310;SDS011;55157;51.036;17.058;2023-12-20T14:12:07;7.32;;;2.10;;
68310;SDS011;55157;51.036;17.058;2023-12-20T14:14:32;4.47;;;1.60;;
68310;SDS011;55157;51.036;17.058;2023-12-20T14:16:59;5.72;;;1.73;;
68310;SDS011;55157;51.036;17.058;2023-12-20T14:19:24;3.60;;;1.52;;
68310;SDS011;55157;51.036;17.058;2023-12-20T14:21:49;7.68;;;1.88;;
68310;SDS011;55157;51.036;17.058;2023-12-20T14:24:15;4.65;;;1.75;;